Home > Products > Valid Products > TAF

000
FTUS43 KPAH 191100
TAFEVV
TAF
KEVV 191126Z 1912/2012 02004KT P6SM FEW250
     FM191600 06007KT P6SM FEW040
     FM200000 06002KT P6SM SKC=



000
FTUS43 KPAH 191100
TAFPAH
TAF
KPAH 191126Z 1912/2012 00000KT P6SM SCT250
     FM191600 06007KT P6SM FEW040
     FM200000 11002KT P6SM SKC=



000
FTUS43 KPAH 191100
TAFCGI
TAF
KCGI 191126Z 1912/2012 00000KT P6SM SCT250
     FM191600 07007KT P6SM FEW040
     FM200000 11003KT P6SM SKC=



000
FTUS43 KPAH 190500
TAFCGI
TAF
KCGI 190520Z 1906/2006 04003KT P6SM SKC
     FM191600 08006KT P6SM FEW040=



000
FTUS43 KPAH 190500
TAFPAH
TAF
KPAH 190520Z 1906/2006 03003KT P6SM SCT300
     FM191600 06007KT P6SM SCT040=



000
FTUS43 KPAH 190500
TAFEVV
TAF
KEVV 190520Z 1906/2006 02004KT P6SM SCT300
     FM191600 06007KT P6SM SCT040=



000
FTUS43 KPAH 182300
TAFEVV
TAF
KEVV 182322Z 1900/1924 01004KT P6SM SKC
     FM191500 06007KT P6SM SKC=



000
FTUS43 KPAH 182300
TAFCGI
TAF
KCGI 182322Z 1900/1924 04007KT P6SM SCT080
     FM190100 05004KT P6SM SKC
     FM191500 07007KT P6SM FEW050=



000
FTUS43 KPAH 182300
TAFPAH
TAF
KPAH 182322Z 1900/1924 04007KT P6SM SCT080
     FM190100 03003KT P6SM SKC
     FM191500 05007KT P6SM FEW040=



000
FTUS43 KPAH 181700
TAFEVV
TAF
KEVV 181721Z 1818/1918 VRB02KT P6SM SKC=



000
FTUS43 KPAH 181700
TAFPAH
TAF
KPAH 181721Z 1818/1918 02003KT P6SM SKC=



000
FTUS43 KPAH 181700
TAFCGI
TAF
KCGI 181721Z 1818/1918 03004KT P6SM SKC=



000
FTUS43 KPAH 181100
TAFPAH
TAF
KPAH 181133Z 1812/1912 VRB03KT P6SM FEW060 BKN100
     FM181700 04005KT P6SM SCT060
     FM190000 03002KT P6SM SKC=



000
FTUS43 KPAH 181100
TAFEVV
TAF
KEVV 181133Z 1812/1912 VRB03KT P6SM FEW060 BKN100
     FM181800 03004KT P6SM FEW050
     FM190000 02003KT P6SM SKC=



000
FTUS43 KPAH 181100
TAFCGI
TAF
KCGI 181133Z 1812/1912 VRB03KT P6SM FEW050 BKN100
     FM181600 04006KT P6SM SCT050
     FM190000 03002KT P6SM SKC=



000
FTUS43 KPAH 180500
TAFEVV
TAF
KEVV 180520Z 1806/1906 VRB03KT P6SM FEW070 SCT150
     FM181800 03004KT P6SM FEW050=



000
FTUS43 KPAH 180500
TAFPAH
TAF
KPAH 180520Z 1806/1906 VRB03KT P6SM FEW060 SCT120
     FM181700 04005KT P6SM SCT060=



000
FTUS43 KPAH 180500
TAFCGI
TAF
KCGI 180520Z 1806/1906 VRB03KT P6SM FEW060 SCT120
     FM181600 04006KT P6SM SCT050=



000
FTUS43 KPAH 172300
TAFCGI
TAF
KCGI 172329Z 1800/1824 16003KT P6SM SCT250
     FM180500 VRB03KT P6SM SCT050 BKN150
     FM181400 04005KT P6SM SCT050=



000
FTUS43 KPAH 172300
TAFEVV
TAF
KEVV 172329Z 1800/1824 17003KT P6SM SCT250
     FM180900 VRB03KT P6SM SCT050 BKN150
     FM181500 36005KT P6SM SCT045=



000
FTUS43 KPAH 172300
TAFPAH
TAF
KPAH 172329Z 1800/1824 16004KT P6SM SCT250
     FM180800 00000KT P6SM SCT045 BKN120
     FM181600 05005KT P6SM SCT050=



000
FTUS43 KPAH 171700
TAFEVV
TAF
KEVV 171720Z 1718/1818 21011G21KT P6SM FEW200
     FM172045 19008KT P6SM SCT045 BKN200
     FM172330 18004KT P6SM BKN050
     FM180600 21004KT P6SM OVC050
     FM181300 VRB02KT P6SM SCT140=



000
FTUS43 KPAH 171700
TAFPAH
TAF
KPAH 171720Z 1718/1818 18008KT P6SM FEW200
     FM172030 19008KT P6SM FEW050 SCT200
     FM172230 17004KT P6SM BKN045
     FM180600 16005KT P6SM OVC050
      TEMPO 1808/1812 00000KT -RA
     FM181400 01004KT P6SM BKN050=



000
FTUS43 KPAH 171700
TAFCGI
TAF
KCGI 171720Z 1718/1818 18008KT P6SM SCT200
     FM172030 19008KT P6SM SCT050 BKN200
     FM172300 16004KT P6SM BKN045
     FM181100 00000KT P6SM FEW060
     FM181400 01004KT P6SM SCT050=



000
FTUS43 KPAH 171100
TAFPAH
TAF
KPAH 171127Z 1712/1812 17004KT P6SM FEW250
     FM171500 18008KT P6SM FEW050 SCT250
     FM180200 14003KT P6SM BKN050=



000
FTUS43 KPAH 171100
TAFEVV
TAF
KEVV 171127Z 1712/1812 16004KT P6SM FEW250
     FM171600 19011G17KT P6SM FEW050 SCT250
     FM172300 14003KT P6SM BKN050=



000
FTUS43 KPAH 171100
TAFCGI
TAF
KCGI 171127Z 1712/1812 16005KT P6SM FEW250
     FM171600 18008KT P6SM FEW050 SCT250
     FM180100 14004KT P6SM BKN050=



000
FTUS43 KPAH 170500
TAFEVV
TAF
KEVV 170520Z 1706/1806 16003KT P6SM SCT250
     FM171500 20011G17KT P6SM FEW040
     FM180000 17003KT P6SM SCT050=



000
FTUS43 KPAH 170500
TAFCGI
TAF
KCGI 170520Z 1706/1806 17003KT P6SM FEW250
     FM171500 18008KT P6SM SCT250
     FM180000 14004KT P6SM SCT045=



000
FTUS43 KPAH 170500
TAFPAH
TAF
KPAH 170520Z 1706/1806 17004KT P6SM FEW250
     FM171500 18008KT P6SM SCT040
     FM180000 17003KT P6SM BKN050=



000
FTUS43 KPAH 162300
TAFPAH
TAF
KPAH 162331Z 1700/1724 16004KT P6SM BKN250
     FM171500 18008KT P6SM SCT040=



000
FTUS43 KPAH 162300
TAFEVV
TAF
KEVV 162331Z 1700/1724 14004KT P6SM BKN250
     FM171500 19010KT P6SM SCT040=



000
FTUS43 KPAH 162300
TAFCGI
TAF
KCGI 162331Z 1700/1724 16009KT P6SM BKN250
     FM170200 16004KT P6SM SCT250
     FM171500 18009KT P6SM SCT040=



000
FTUS43 KPAH 161700
TAFPAH
TAF
KPAH 161720Z 1618/1718 14009G15KT P6SM SCT250
     FM170000 16004KT P6SM SCT250
     FM171400 17012G20KT P6SM SKC=



000
FTUS43 KPAH 161700
TAFCGI
TAF
KCGI 161720Z 1618/1718 13012G18KT P6SM SKC
     FM170000 15005KT P6SM SCT250
     FM171400 17014G24KT P6SM SKC=



000
FTUS43 KPAH 161700
TAFEVV
TAF
KEVV 161720Z 1618/1718 13010G16KT P6SM SCT250
     FM170000 16005KT P6SM SCT250
     FM171400 17011KT P6SM SKC=



    US Dept of Commerce
    National Oceanic and Atmospheric Administration
    National Weather Service
    1325 East West Highway
    Silver Spring, MD 20910
    Page Author: NWS Internet Services Team
Disclaimer
Information Quality
Credits
Glossary
Privacy Policy
Freedom of Information Act (FOIA)
About Us
Career Opportunities